Portada
METAR-TAF:

METAR-TAF

Aeroports :

Ormond Beach Municipal Airport

Ormond Beach, Florida, Estats Units d'Amèrica

latitud: 29-18-04N, longitud: 081-06-49W, altitud: 9 m

Observació

L'informe es va fer fa 41 minuts, a les 21:50 UTC
Vent 10 kt del Oest
Temperatura 15°C
Humitat 29%
Pressió 1022 hPa
Visibilitat: 16.1 km
Cel clar

METAR: KOMN 282150Z 27010KT 10SM CLR 15/M03 A3018

Hora: 17:31 (22:31 UTC)


TAF: manca

Observacions i pronòstics meteorològics de més de 4000 aeroports (METAR i TAF).

Les estacions disponibles són els punts grocs i vermells al mapa.

Posi el ratolí al punt desitjat per veure el nom de l'estació.

Feu clic per veure les observacions i els pronòstics meteorològics.

Per canviar el mapa: feu clic els botons verds amb una creu de color negre per apropar; al botó verd amb un guió per allunyar la imatge; o en les fletxes verdes per a mapes adjacents.


METAR-TAF: